Time;durP1;ratioP1;P1;durP2;ratioP2;P2;SDS_P1;SDS_P2;PMS_P1;PMS_P2;Temp;Humidity;BMP_temperature;BMP_pressure;BME280_temperature;BME280_humidity;BME280_pressure;Samples;Min_cycle;Max_cycle;Signal;HPM_P1;HPM_P2
2020/12/22 00:01:13;;;;;;;4.40;3.00;;;9.50;99.90;;;;;;5013089;28;20388;-67
2020/12/22 00:03:40;;;;;;;3.77;2.20;;;9.50;99.90;;;;;;5012999;28;20826;-66
2020/12/22 00:06:05;;;;;;;3.93;3.10;;;9.60;99.90;;;;;;5012880;28;20466;-66
2020/12/22 00:08:31;;;;;;;3.30;2.77;;;9.60;99.90;;;;;;5012981;28;20408;-66
2020/12/22 00:10:57;;;;;;;5.03;3.17;;;9.60;99.90;;;;;;5012871;28;20603;-68
2020/12/22 00:13:22;;;;;;;3.10;2.80;;;9.60;99.90;;;;;;5012977;28;20190;-67
2020/12/22 00:15:48;;;;;;;4.77;3.23;;;9.70;99.90;;;;;;5013028;28;20176;-65
2020/12/22 00:18:14;;;;;;;2.93;2.43;;;9.70;99.90;;;;;;5012871;28;20278;-67
2020/12/22 00:20:39;;;;;;;3.17;2.83;;;9.70;99.90;;;;;;5012670;28;20173;-65
2020/12/22 00:23:05;;;;;;;4.83;3.23;;;9.70;99.90;;;;;;5012669;28;20415;-66
2020/12/22 00:25:31;;;;;;;3.10;2.80;;;9.70;99.90;;;;;;5012543;28;20297;-66
2020/12/22 00:27:57;;;;;;;2.67;2.23;;;9.70;99.90;;;;;;5011187;28;20264;-65
2020/12/22 00:30:22;;;;;;;4.67;3.17;;;9.70;99.90;;;;;;5012625;28;20187;-67
2020/12/22 00:32:48;;;;;;;3.97;3.30;;;9.80;99.90;;;;;;5012531;28;20177;-66
2020/12/22 00:35:14;;;;;;;4.43;3.47;;;9.80;99.90;;;;;;5012259;28;20239;-66
2020/12/22 00:37:39;;;;;;;3.50;3.13;;;9.80;99.90;;;;;;5012382;28;20172;-67
2020/12/22 00:40:05;;;;;;;5.00;4.50;;;9.80;99.90;;;;;;5012105;28;20653;-66
2020/12/22 00:42:31;;;;;;;3.53;3.20;;;10.00;99.90;;;;;;5011797;28;20260;-65
2020/12/22 00:44:58;;;;;;;4.30;3.83;;;9.80;99.90;;;;;;5012191;28;20204;-66
2020/12/22 00:47:24;;;;;;;3.50;2.90;;;9.90;99.90;;;;;;5013447;28;21011;-66
2020/12/22 00:49:49;;;;;;;4.00;3.30;;;9.90;99.90;;;;;;5012236;28;20431;-66
2020/12/22 00:52:16;;;;;;;2.33;1.73;;;9.90;99.90;;;;;;5012062;28;20175;-67
2020/12/22 00:54:41;;;;;;;3.37;3.07;;;9.90;99.90;;;;;;5012054;28;20184;-66
2020/12/22 00:57:07;;;;;;;4.50;3.47;;;9.90;99.90;;;;;;5012215;28;20901;-64
2020/12/22 00:59:35;;;;;;;4.17;3.10;;;10.00;99.90;;;;;;5011939;28;20185;-66
2020/12/22 01:02:08;;;;;;;3.90;3.27;;;10.00;99.90;;;;;;5012092;28;20192;-67
2020/12/22 01:04:33;;;;;;;1.87;1.73;;;10.00;99.90;;;;;;5011514;28;20850;-67
2020/12/22 01:06:59;;;;;;;3.50;2.67;;;10.10;99.90;;;;;;5011901;28;20423;-67
2020/12/22 01:09:25;;;;;;;4.17;2.73;;;10.10;99.90;;;;;;4994056;28;20209;-66
2020/12/22 01:11:51;;;;;;;2.77;2.43;;;10.10;99.90;;;;;;5011813;28;20180;-66
2020/12/22 01:14:16;;;;;;;2.87;2.57;;;10.10;99.90;;;;;;5011865;28;20179;-65
2020/12/22 01:16:42;;;;;;;3.47;2.07;;;10.10;99.90;;;;;;5011771;28;20191;-67
2020/12/22 01:19:08;;;;;;;3.30;2.53;;;10.10;99.90;;;;;;5011672;28;20180;-65
2020/12/22 01:21:34;;;;;;;2.43;2.00;;;10.10;99.90;;;;;;5011620;28;20180;-66
2020/12/22 01:24:01;;;;;;;2.60;2.40;;;10.10;99.90;;;;;;5011457;28;20192;-66
2020/12/22 01:26:26;;;;;;;3.60;2.00;;;10.10;99.90;;;;;;5011744;28;20235;-68
2020/12/22 01:28:53;;;;;;;4.23;2.00;;;10.10;99.90;;;;;;5011716;28;20423;-66
2020/12/22 01:31:30;;;;;;;3.33;2.00;;;10.10;99.90;;;;;;5011607;28;20172;-65
2020/12/22 01:33:57;;;;;;;2.80;2.30;;;10.10;99.90;;;;;;5011565;28;20447;-66
2020/12/22 01:36:24;;;;;;;2.63;1.77;;;10.10;99.90;;;;;;5010728;28;20438;-68
2020/12/22 01:38:50;;;;;;;1.50;1.40;;;10.20;99.90;;;;;;5011635;28;20764;-65
2020/12/22 01:41:16;;;;;;;3.27;2.13;;;10.20;99.90;;;;;;5011198;28;20423;-66
2020/12/22 01:43:42;;;;;;;2.27;1.67;;;10.20;99.90;;;;;;5011442;28;20735;-65
2020/12/22 01:46:08;;;;;;;1.63;1.53;;;10.20;99.90;;;;;;5013032;28;20451;-65
2020/12/22 01:48:36;;;;;;;2.50;1.60;;;10.20;99.90;;;;;;5011418;28;20479;-68
2020/12/22 01:51:02;;;;;;;1.97;1.67;;;10.20;99.90;;;;;;4993653;28;20180;-65
2020/12/22 01:53:27;;;;;;;1.70;1.60;;;10.20;99.90;;;;;;5011419;28;20412;-66
2020/12/22 01:55:54;;;;;;;1.70;1.43;;;10.20;99.90;;;;;;5015387;28;20210;-68
2020/12/22 01:58:20;;;;;;;1.57;1.47;;;10.20;99.90;;;;;;5015150;28;20184;-67
2020/12/22 02:00:46;;;;;;;2.17;1.60;;;10.20;99.90;;;;;;4997465;28;20446;-66
2020/12/22 02:03:11;;;;;;;2.90;1.23;;;10.20;99.90;;;;;;5015046;28;20588;-68
2020/12/22 02:05:38;;;;;;;2.00;1.80;;;10.20;99.90;;;;;;5015054;28;20454;-65
2020/12/22 02:08:06;;;;;;;1.60;1.23;;;10.20;99.90;;;;;;5015044;28;20180;-66
2020/12/22 02:10:33;;;;;;;2.10;1.70;;;10.30;99.90;;;;;;5014966;28;20419;-67
2020/12/22 02:12:59;;;;;;;1.53;1.43;;;10.30;99.90;;;;;;5014795;28;20419;-65
2020/12/22 02:15:26;;;;;;;1.53;1.23;;;10.30;99.90;;;;;;5012601;28;20423;-66
2020/12/22 02:17:52;;;;;;;2.10;1.70;;;10.30;99.90;;;;;;5015112;28;20501;-65
2020/12/22 02:20:17;;;;;;;0.97;0.90;;;10.30;99.90;;;;;;5014923;28;20519;-66
2020/12/22 02:22:43;;;;;;;2.27;1.40;;;10.30;99.90;;;;;;5014966;28;20185;-68
2020/12/22 02:25:17;;;;;;;1.70;1.60;;;10.30;99.90;;;;;;5014651;28;20207;-66
2020/12/22 02:27:43;;;;;;;1.53;1.30;;;10.40;99.90;;;;;;5014641;28;20187;-66
2020/12/22 02:30:09;;;;;;;1.80;1.47;;;10.30;99.90;;;;;;5014950;28;20511;-66
2020/12/22 02:32:35;;;;;;;0.97;0.90;;;10.40;99.90;;;;;;5014485;28;20441;-66
2020/12/22 02:35:02;;;;;;;0.73;0.73;;;10.40;99.90;;;;;;5014620;28;20510;-67
2020/12/22 02:37:27;;;;;;;1.20;1.10;;;10.40;99.90;;;;;;5014789;28;20642;-66
2020/12/22 02:39:53;;;;;;;2.73;0.90;;;10.40;99.90;;;;;;5014563;28;20414;-65
2020/12/22 02:42:18;;;;;;;1.30;1.13;;;10.40;99.90;;;;;;5014635;28;20176;-66
2020/12/22 02:44:44;;;;;;;2.20;1.10;;;10.50;99.90;;;;;;5014131;28;20228;-66
2020/12/22 02:47:12;;;;;;;1.40;1.30;;;10.50;99.90;;;;;;5016375;28;20212;-66
2020/12/22 02:49:42;;;;;;;0.77;0.67;;;10.50;99.90;;;;;;5014452;28;20177;-66
2020/12/22 02:52:08;;;;;;;0.93;0.87;;;10.50;99.90;;;;;;5014532;28;20431;-66
2020/12/22 02:54:34;;;;;;;3.20;1.50;;;10.50;99.90;;;;;;5014024;28;20664;-65
2020/12/22 02:57:00;;;;;;;1.50;1.27;;;10.50;99.90;;;;;;5014290;28;20506;-66
2020/12/22 02:59:26;;;;;;;1.37;1.13;;;10.50;99.90;;;;;;5014290;28;20216;-67
2020/12/22 03:01:51;;;;;;;1.10;0.87;;;10.50;99.90;;;;;;5014000;28;20176;-66
2020/12/22 03:04:17;;;;;;;1.23;1.13;;;10.50;99.90;;;;;;5014129;28;20204;-65
2020/12/22 03:06:43;;;;;;;1.33;1.07;;;10.50;99.90;;;;;;5013507;28;20536;-66
2020/12/22 03:09:09;;;;;;;1.50;1.20;;;10.50;99.90;;;;;;5014132;28;20623;-67
2020/12/22 03:11:34;;;;;;;0.73;0.73;;;10.50;99.90;;;;;;5013932;28;20645;-67
2020/12/22 03:14:00;;;;;;;1.10;0.97;;;10.50;99.90;;;;;;5014111;28;20224;-68
2020/12/22 03:16:26;;;;;;;1.20;1.10;;;10.60;99.90;;;;;;5013719;28;20537;-67
2020/12/22 03:18:52;;;;;;;2.03;1.23;;;10.50;99.90;;;;;;5013626;28;20432;-66
2020/12/22 03:21:19;;;;;;;1.67;1.10;;;10.60;99.90;;;;;;5014137;28;20224;-66
2020/12/22 03:23:44;;;;;;;2.20;0.90;;;10.60;99.90;;;;;;5013587;28;20211;-67
2020/12/22 03:26:10;;;;;;;1.17;1.07;;;10.60;99.90;;;;;;5013551;28;20231;-66
2020/12/22 03:28:36;;;;;;;1.40;1.10;;;10.60;99.90;;;;;;5013669;28;20535;-64
2020/12/22 03:31:01;;;;;;;1.47;1.00;;;10.60;99.90;;;;;;5013961;28;20176;-65
2020/12/22 03:33:28;;;;;;;0.90;0.90;;;10.60;99.90;;;;;;5013828;28;20176;-66
2020/12/22 03:35:54;;;;;;;1.07;0.97;;;10.60;99.90;;;;;;5013367;28;20176;-66
2020/12/22 03:38:19;;;;;;;2.10;0.90;;;10.60;99.90;;;;;;5013382;28;20507;-67
2020/12/22 03:40:45;;;;;;;1.80;1.07;;;10.60;99.90;;;;;;5013467;28;20188;-66
2020/12/22 03:43:11;;;;;;;1.47;1.30;;;10.60;99.90;;;;;;5013478;28;20196;-67
2020/12/22 03:45:38;;;;;;;1.37;0.90;;;10.60;99.90;;;;;;5010473;28;20246;-67
2020/12/22 03:48:04;;;;;;;3.23;1.00;;;10.60;99.90;;;;;;5025720;28;20215;-65
2020/12/22 03:50:30;;;;;;;0.90;0.90;;;10.70;99.90;;;;;;5014724;28;20415;-66
2020/12/22 03:52:59;;;;;;;1.63;1.20;;;10.60;99.90;;;;;;5013145;28;20181;-66
2020/12/22 03:55:24;;;;;;;1.90;1.30;;;10.70;99.90;;;;;;5029890;28;20269;-67
2020/12/22 03:57:50;;;;;;;0.83;0.83;;;10.70;99.90;;;;;;5026721;28;20213;-65
2020/12/22 04:00:15;;;;;;;1.70;1.20;;;10.70;99.90;;;;;;5013059;28;20176;-68
2020/12/22 04:02:42;;;;;;;1.10;1.00;;;10.70;99.90;;;;;;5026108;28;20267;-66
2020/12/22 04:05:07;;;;;;;0.97;0.87;;;10.60;99.90;;;;;;5032620;28;20287;-67
2020/12/22 04:07:33;;;;;;;1.00;0.90;;;10.70;99.90;;;;;;5031156;28;20325;-66
2020/12/22 04:09:58;;;;;;;0.90;0.80;;;10.70;99.90;;;;;;5013150;28;20686;-66
2020/12/22 04:12:24;;;;;;;1.37;0.67;;;10.70;99.90;;;;;;5030829;28;21481;-66
2020/12/22 04:14:50;;;;;;;1.97;0.50;;;10.70;99.90;;;;;;5032609;28;20176;-67
2020/12/22 04:17:16;;;;;;;1.33;1.23;;;10.70;99.90;;;;;;5031526;28;20183;-67
2020/12/22 04:19:41;;;;;;;0.53;0.53;;;10.70;99.90;;;;;;5032345;28;20259;-66
2020/12/22 04:22:07;;;;;;;1.03;0.93;;;10.70;99.90;;;;;;5032538;28;20258;-66
2020/12/22 04:24:32;;;;;;;1.40;0.80;;;10.70;99.90;;;;;;5032298;28;20204;-66
2020/12/22 04:26:58;;;;;;;0.90;0.80;;;10.70;99.90;;;;;;5014397;28;20629;-69
2020/12/22 04:29:23;;;;;;;0.90;0.80;;;10.70;99.90;;;;;;5022890;28;20175;-66
2020/12/22 04:31:49;;;;;;;0.93;0.90;;;10.80;99.90;;;;;;5032340;28;20588;-69
2020/12/22 04:34:15;;;;;;;2.53;1.10;;;10.80;99.90;;;;;;4994949;28;20184;-67
2020/12/22 04:36:40;;;;;;;1.50;0.77;;;10.80;99.90;;;;;;5012582;28;20552;-66
2020/12/22 04:39:06;;;;;;;2.10;0.60;;;10.80;99.90;;;;;;5020774;28;20180;-66
2020/12/22 04:41:32;;;;;;;3.13;0.87;;;10.80;99.90;;;;;;5012457;28;20177;-66
2020/12/22 04:43:59;;;;;;;0.80;0.80;;;10.80;99.90;;;;;;5012800;28;20211;-67
2020/12/22 04:46:26;;;;;;;0.73;0.73;;;10.90;99.90;;;;;;5013568;28;20207;-69
2020/12/22 04:48:55;;;;;;;2.40;0.80;;;10.90;99.90;;;;;;5012418;28;20176;-67
2020/12/22 04:51:22;;;;;;;1.37;0.50;;;10.90;99.90;;;;;;5012145;28;20513;-67
2020/12/22 04:53:49;;;;;;;0.90;0.77;;;10.90;99.90;;;;;;5012128;28;20871;-68
2020/12/22 04:56:15;;;;;;;1.10;0.70;;;10.90;99.90;;;;;;5012049;28;20180;-65
2020/12/22 04:58:41;;;;;;;0.70;0.70;;;10.90;99.90;;;;;;5012256;28;20204;-66
2020/12/22 05:01:07;;;;;;;1.73;0.63;;;10.90;99.90;;;;;;5012141;28;20255;-68
2020/12/22 05:03:33;;;;;;;0.93;0.80;;;10.90;99.90;;;;;;5012098;28;20466;-67
2020/12/22 05:05:58;;;;;;;1.40;0.60;;;10.90;99.90;;;;;;5011614;28;20211;-67
2020/12/22 05:08:24;;;;;;;0.67;0.60;;;10.90;99.90;;;;;;5012073;28;20176;-68
2020/12/22 05:10:56;;;;;;;0.67;0.60;;;10.90;99.90;;;;;;5012063;28;20191;-65
2020/12/22 05:13:22;;;;;;;1.50;0.70;;;11.00;99.90;;;;;;5012035;28;20173;-64
2020/12/22 05:15:53;;;;;;;2.20;0.80;;;11.00;99.90;;;;;;5011750;28;20177;-66
2020/12/22 05:18:23;;;;;;;0.37;0.37;;;10.90;99.90;;;;;;5011895;28;20192;-67
2020/12/22 05:20:49;;;;;;;0.90;0.70;;;10.90;99.90;;;;;;5011841;28;20176;-66
2020/12/22 05:23:16;;;;;;;2.73;0.60;;;10.90;99.90;;;;;;5011656;28;20176;-65
2020/12/22 05:25:44;;;;;;;0.53;0.53;;;10.90;99.90;;;;;;5011736;28;20308;-68
2020/12/22 05:28:14;;;;;;;0.90;0.80;;;10.90;99.90;;;;;;5011628;28;20806;-68
2020/12/22 05:30:40;;;;;;;2.43;1.00;;;10.90;99.90;;;;;;5011399;28;20569;-67
2020/12/22 05:33:05;;;;;;;1.60;0.90;;;10.90;99.90;;;;;;4994058;28;20184;-68
2020/12/22 05:35:39;;;;;;;1.33;1.23;;;10.90;99.90;;;;;;5011475;28;20180;-67
2020/12/22 05:38:05;;;;;;;3.10;1.73;;;11.00;99.90;;;;;;5011579;28;20566;-68
2020/12/22 05:40:32;;;;;;;1.40;1.20;;;11.00;99.90;;;;;;5011472;28;20184;-67
2020/12/22 05:42:59;;;;;;;2.33;1.30;;;11.00;99.90;;;;;;5011449;28;20271;-66
2020/12/22 05:45:29;;;;;;;0.83;0.80;;;10.90;99.90;;;;;;5011378;28;20196;-67
2020/12/22 05:48:04;;;;;;;3.60;1.30;;;11.00;99.90;;;;;;5012081;28;20324;-66
2020/12/22 05:50:30;;;;;;;1.37;1.27;;;11.00;99.90;;;;;;5011442;28;20549;-67
2020/12/22 05:52:56;;;;;;;4.60;2.17;;;11.00;99.90;;;;;;5011553;28;20168;-65
2020/12/22 05:55:26;;;;;;;2.60;2.30;;;11.00;99.90;;;;;;5010266;28;20575;-66
2020/12/22 05:58:06;;;;;;;2.93;2.00;;;11.00;99.90;;;;;;5011163;28;20221;-66
2020/12/22 06:00:31;;;;;;;2.80;1.53;;;11.10;99.90;;;;;;5011599;28;20174;-67
2020/12/22 06:03:05;;;;;;;3.20;1.90;;;11.10;99.90;;;;;;5011423;28;20226;-67
2020/12/22 06:05:35;;;;;;;2.40;1.43;;;11.00;99.90;;;;;;5011433;28;20211;-65
2020/12/22 06:08:03;;;;;;;1.30;1.20;;;11.00;99.90;;;;;;5011471;28;20424;-66
2020/12/22 06:10:29;;;;;;;1.40;1.30;;;11.00;99.90;;;;;;5011223;28;20181;-64
2020/12/22 06:12:57;;;;;;;2.80;1.77;;;11.10;99.90;;;;;;5011114;28;20268;-66
2020/12/22 06:15:24;;;;;;;2.13;1.87;;;11.10;99.90;;;;;;5011345;28;20200;-67
2020/12/22 06:17:50;;;;;;;4.40;2.00;;;11.10;99.90;;;;;;5011245;28;20642;-67
2020/12/22 06:20:27;;;;;;;1.50;1.30;;;11.10;99.90;;;;;;5011390;28;20195;-65
2020/12/22 06:23:00;;;;;;;1.40;1.30;;;11.20;99.90;;;;;;5011102;28;20229;-67
2020/12/22 06:25:26;;;;;;;1.70;1.10;;;11.20;99.90;;;;;;5011047;28;20204;-65
2020/12/22 06:27:51;;;;;;;1.20;1.00;;;11.20;99.90;;;;;;5011381;28;20266;-67
2020/12/22 06:30:18;;;;;;;1.70;1.03;;;11.20;99.90;;;;;;5010963;28;20619;-67
2020/12/22 06:32:44;;;;;;;2.70;1.10;;;11.20;99.90;;;;;;5010852;28;20184;-66
2020/12/22 06:35:30;;;;;;;1.80;1.10;;;11.20;99.90;;;;;;5011075;28;20188;-67
2020/12/22 06:37:57;;;;;;;1.70;0.90;;;11.20;99.90;;;;;;5010989;28;20192;-67
2020/12/22 06:40:52;;;;;;;2.87;0.90;;;11.20;99.90;;;;;;5011021;28;20177;-66
2020/12/22 06:43:37;;;;;;;1.47;0.90;;;11.20;99.90;;;;;;5014441;28;20222;-68
2020/12/22 06:46:03;;;;;;;1.47;0.80;;;11.20;99.90;;;;;;5014480;28;20356;-69
2020/12/22 06:48:43;;;;;;;4.37;1.00;;;11.30;99.90;;;;;;5016162;28;20259;-66
2020/12/22 06:51:23;;;;;;;0.70;0.70;;;11.30;99.90;;;;;;5014511;28;20173;-67
2020/12/22 06:53:48;;;;;;;1.03;0.60;;;11.30;99.90;;;;;;5013020;28;20172;-68
2020/12/22 06:56:14;;;;;;;0.93;0.60;;;11.30;99.90;;;;;;5014524;28;20653;-64
2020/12/22 06:58:41;;;;;;;1.00;0.60;;;11.50;99.90;;;;;;5014315;28;20640;-66
2020/12/22 07:01:26;;;;;;;2.43;0.80;;;11.60;99.90;;;;;;5014311;28;20184;-67
2020/12/22 07:03:52;;;;;;;1.33;0.60;;;11.60;99.90;;;;;;5014383;28;20529;-66
2020/12/22 07:06:43;;;;;;;0.87;0.60;;;11.60;99.90;;;;;;5013999;28;20200;-67
2020/12/22 07:09:17;;;;;;;2.27;0.87;;;11.60;99.90;;;;;;5013983;28;20168;-68
2020/12/22 07:11:43;;;;;;;0.67;0.67;;;11.50;99.90;;;;;;5014305;28;20234;-67
2020/12/22 07:14:23;;;;;;;0.90;0.70;;;11.40;99.90;;;;;;5014058;28;20176;-69
2020/12/22 07:16:55;;;;;;;1.30;0.60;;;11.40;99.90;;;;;;5013144;28;20187;-66
2020/12/22 07:19:28;;;;;;;2.03;0.90;;;11.40;99.90;;;;;;5013971;28;20259;-68
2020/12/22 07:22:01;;;;;;;1.03;0.97;;;11.30;99.90;;;;;;5013736;28;20184;-66
2020/12/22 07:24:32;;;;;;;1.43;1.00;;;11.30;99.90;;;;;;5013947;28;20192;-65
2020/12/22 07:26:57;;;;;;;2.07;1.07;;;11.30;99.90;;;;;;5013811;28;20268;-69
2020/12/22 07:29:24;;;;;;;0.90;0.73;;;11.30;99.90;;;;;;5013817;28;21765;-66
2020/12/22 07:31:50;;;;;;;1.50;1.20;;;11.30;99.90;;;;;;5013496;28;20195;-65
2020/12/22 07:34:16;;;;;;;2.50;1.60;;;11.30;99.90;;;;;;5014051;28;20172;-66
2020/12/22 07:36:42;;;;;;;2.87;1.47;;;11.30;99.90;;;;;;5013755;28;20181;-65
2020/12/22 07:39:22;;;;;;;1.30;1.20;;;11.30;99.90;;;;;;5013634;28;20177;-65
2020/12/22 07:41:52;;;;;;;1.33;1.10;;;11.30;99.90;;;;;;5013625;28;20641;-66
2020/12/22 07:44:20;;;;;;;0.87;0.87;;;11.40;99.90;;;;;;5013163;28;20195;-66
2020/12/22 07:46:47;;;;;;;1.90;1.30;;;11.40;99.90;;;;;;5014853;28;20184;-67
2020/12/22 07:49:15;;;;;;;2.53;1.07;;;11.40;99.90;;;;;;5013620;28;20180;-68
2020/12/22 07:51:42;;;;;;;1.57;1.40;;;11.40;99.90;;;;;;5013375;28;20258;-68
2020/12/22 07:54:09;;;;;;;2.03;0.97;;;11.40;99.90;;;;;;5013300;28;20172;-66
2020/12/22 07:56:40;;;;;;;2.60;1.00;;;11.40;99.90;;;;;;5013451;28;20235;-67
2020/12/22 07:59:10;;;;;;;1.10;1.00;;;11.50;99.90;;;;;;5012370;28;20168;-68
2020/12/22 08:01:50;;;;;;;1.47;1.10;;;11.50;99.90;;;;;;5013404;28;20175;-69
2020/12/22 08:04:17;;;;;;;1.57;0.97;;;11.50;99.90;;;;;;5013013;28;20349;-66
2020/12/22 08:06:59;;;;;;;1.53;1.43;;;11.50;99.90;;;;;;5013174;28;20259;-69
2020/12/22 08:09:31;;;;;;;0.80;0.80;;;11.50;99.90;;;;;;5012982;28;20181;-67
2020/12/22 08:11:58;;;;;;;1.17;1.07;;;11.50;99.90;;;;;;5012842;28;20200;-67
2020/12/22 08:14:26;;;;;;;1.37;0.97;;;11.50;99.90;;;;;;5011676;28;20577;-67
2020/12/22 08:16:59;;;;;;;2.17;0.50;;;11.60;99.90;;;;;;5013082;28;20515;-67
2020/12/22 08:19:30;;;;;;;0.70;0.50;;;11.70;99.90;;;;;;5012787;28;20516;-66
2020/12/22 08:21:56;;;;;;;0.43;0.33;;;11.70;99.90;;;;;;5012986;28;20557;-67
2020/12/22 08:24:23;;;;;;;0.40;0.40;;;11.80;99.90;;;;;;5012655;28;20516;-67
2020/12/22 08:26:50;;;;;;;0.40;0.30;;;11.80;99.90;;;;;;5012710;28;20177;-67
2020/12/22 08:29:17;;;;;;;1.17;0.30;;;11.80;99.90;;;;;;5012900;28;20179;-67
2020/12/22 08:31:45;;;;;;;0.43;0.43;;;11.90;99.90;;;;;;5012665;28;20279;-68
2020/12/22 08:34:13;;;;;;;0.50;0.50;;;12.00;99.90;;;;;;5012487;28;20172;-65
2020/12/22 08:36:41;;;;;;;1.97;0.60;;;12.00;99.90;;;;;;5012312;28;20231;-65
2020/12/22 08:39:18;;;;;;;1.87;0.40;;;12.00;99.90;;;;;;5012590;28;20173;-67
2020/12/22 08:41:47;;;;;;;0.20;0.20;;;12.00;99.90;;;;;;5012162;28;20183;-65
2020/12/22 08:44:13;;;;;;;3.30;0.53;;;12.10;99.90;;;;;;5012433;28;20630;-66
2020/12/22 08:46:40;;;;;;;2.27;0.60;;;12.20;99.90;;;;;;5012407;28;20231;-68
2020/12/22 08:49:08;;;;;;;1.23;0.60;;;12.10;99.90;;;;;;5011556;28;20196;-67
2020/12/22 08:51:34;;;;;;;0.77;0.43;;;12.20;99.90;;;;;;5018124;28;20223;-67
2020/12/22 08:54:01;;;;;;;0.80;0.50;;;12.20;99.90;;;;;;5031702;28;20186;-67
2020/12/22 08:56:27;;;;;;;1.03;0.80;;;12.20;99.90;;;;;;5031815;28;20262;-68
2020/12/22 08:59:04;;;;;;;0.73;0.57;;;12.30;99.90;;;;;;4995409;28;20203;-66
2020/12/22 09:01:43;;;;;;;1.13;0.60;;;12.30;99.90;;;;;;5013621;28;20188;-65
2020/12/22 09:04:10;;;;;;;0.87;0.70;;;12.20;99.90;;;;;;5017536;28;20522;-66
2020/12/22 09:06:47;;;;;;;1.27;0.50;;;12.30;99.90;;;;;;5018193;28;20266;-69
2020/12/22 09:09:17;;;;;;;2.07;0.80;;;12.30;99.90;;;;;;5028703;28;20184;-67
2020/12/22 09:11:46;;;;;;;2.83;0.60;;;12.30;99.90;;;;;;5026571;28;20176;-66
2020/12/22 09:14:13;;;;;;;1.20;0.80;;;12.30;99.90;;;;;;5018989;28;20188;-66
2020/12/22 09:16:43;;;;;;;0.93;0.47;;;12.40;99.90;;;;;;5016839;28;20572;-66
2020/12/22 09:19:08;;;;;;;1.80;0.60;;;12.30;99.90;;;;;;5029676;28;20235;-68
2020/12/22 09:21:34;;;;;;;2.03;0.60;;;12.30;99.90;;;;;;5031423;28;20578;-67
2020/12/22 09:24:00;;;;;;;1.57;0.60;;;12.30;99.90;;;;;;5025616;28;20189;-65
2020/12/22 09:26:25;;;;;;;0.80;0.50;;;12.40;99.90;;;;;;5023374;28;20191;-66
2020/12/22 09:28:51;;;;;;;0.80;0.33;;;12.40;99.90;;;;;;5031626;28;20179;-65
2020/12/22 09:31:26;;;;;;;1.10;0.40;;;12.40;99.90;;;;;;5014274;28;20175;-64
2020/12/22 09:33:52;;;;;;;0.63;0.20;;;12.40;99.90;;;;;;5018545;28;20230;-65
2020/12/22 09:36:18;;;;;;;0.67;0.30;;;12.40;99.90;;;;;;5028206;28;20184;-65
2020/12/22 09:38:43;;;;;;;1.40;0.60;;;12.50;99.90;;;;;;5019646;28;20192;-66
2020/12/22 09:41:09;;;;;;;1.83;0.50;;;12.40;99.90;;;;;;5014452;28;20172;-67
2020/12/22 09:43:35;;;;;;;1.80;0.40;;;12.40;99.90;;;;;;5014583;28;20661;-66
2020/12/22 09:46:00;;;;;;;0.50;0.40;;;12.40;99.90;;;;;;5028930;28;20295;-66
2020/12/22 09:48:26;;;;;;;0.60;0.40;;;12.40;99.90;;;;;;5014159;28;20282;-65
2020/12/22 09:50:51;;;;;;;0.53;0.50;;;12.50;99.90;;;;;;5011668;28;20168;-68
2020/12/22 09:53:19;;;;;;;0.43;0.30;;;12.60;99.90;;;;;;5011512;28;20183;-67
2020/12/22 09:55:44;;;;;;;0.47;0.40;;;12.60;99.90;;;;;;5011040;28;20207;-65
2020/12/22 09:58:10;;;;;;;1.00;0.60;;;12.60;99.90;;;;;;5011441;28;20212;-67
2020/12/22 10:00:35;;;;;;;2.93;0.63;;;12.60;99.90;;;;;;5011574;28;20184;-68
2020/12/22 10:03:01;;;;;;;1.27;0.40;;;12.50;99.90;;;;;;5011284;28;20184;-67
2020/12/22 10:05:26;;;;;;;0.77;0.30;;;12.50;99.90;;;;;;5011336;28;20232;-66
2020/12/22 10:07:52;;;;;;;0.50;0.50;;;12.50;99.90;;;;;;5011270;28;20639;-67
2020/12/22 10:10:17;;;;;;;1.80;0.77;;;12.60;99.90;;;;;;5011266;28;20659;-67
2020/12/22 10:12:43;;;;;;;3.50;1.00;;;12.50;99.90;;;;;;5010996;28;20174;-66
2020/12/22 10:15:09;;;;;;;0.50;0.40;;;12.60;99.90;;;;;;5011360;28;20634;-65
2020/12/22 10:17:34;;;;;;;1.50;0.70;;;12.60;99.90;;;;;;5014874;28;20517;-67
2020/12/22 10:20:00;;;;;;;1.00;0.70;;;12.70;99.90;;;;;;5015070;28;20184;-64
2020/12/22 10:22:29;;;;;;;2.20;0.90;;;12.70;99.90;;;;;;5014993;28;20180;-64
2020/12/22 10:24:55;;;;;;;0.77;0.57;;;12.80;99.90;;;;;;5014970;28;21463;-65
2020/12/22 10:27:21;;;;;;;0.90;0.60;;;12.80;99.90;;;;;;5014167;28;20184;-65
2020/12/22 10:29:46;;;;;;;0.70;0.50;;;12.90;99.90;;;;;;5014349;28;20184;-65
2020/12/22 10:32:12;;;;;;;0.97;0.60;;;12.90;99.90;;;;;;5013970;28;20251;-68
2020/12/22 10:34:37;;;;;;;1.13;0.80;;;12.90;99.90;;;;;;5014029;28;20222;-66
2020/12/22 10:37:03;;;;;;;0.80;0.50;;;13.00;99.90;;;;;;5014228;28;20176;-65
2020/12/22 10:39:29;;;;;;;3.43;0.60;;;13.00;99.90;;;;;;5013822;28;20176;-65
2020/12/22 10:41:55;;;;;;;0.50;0.30;;;13.10;99.90;;;;;;5014323;28;20215;-64
2020/12/22 10:44:21;;;;;;;0.73;0.40;;;13.10;99.90;;;;;;5013798;28;20192;-66
2020/12/22 10:46:53;;;;;;;0.70;0.30;;;13.10;99.90;;;;;;5014249;28;20184;-66
2020/12/22 10:49:19;;;;;;;3.20;0.57;;;13.10;99.90;;;;;;5010984;28;20567;-65
2020/12/22 10:51:44;;;;;;;0.37;0.30;;;13.10;99.90;;;;;;5033413;28;20176;-63
2020/12/22 10:54:10;;;;;;;0.87;0.30;;;13.20;99.90;;;;;;5027591;28;20179;-66
2020/12/22 10:56:36;;;;;;;0.50;0.50;;;13.10;99.90;;;;;;5020409;28;20548;-66
2020/12/22 10:59:01;;;;;;;0.90;0.50;;;13.20;99.90;;;;;;5022948;28;20192;-67
2020/12/22 11:01:27;;;;;;;1.40;0.30;;;13.20;99.90;;;;;;5021274;28;20539;-67
2020/12/22 11:03:53;;;;;;;0.70;0.40;;;13.20;99.90;;;;;;5022486;28;20184;-65
2020/12/22 11:08:44;;;;;;;0.77;0.40;;;13.20;99.90;;;;;;5013647;28;20185;-68
2020/12/22 11:11:10;;;;;;;0.30;0.30;;;13.20;99.90;;;;;;5028718;28;20191;-65
2020/12/22 11:13:36;;;;;;;1.53;0.30;;;13.20;99.90;;;;;;5033142;28;20176;-66
2020/12/22 11:16:04;;;;;;;0.57;0.23;;;13.30;99.90;;;;;;5016963;28;20267;-65
2020/12/22 11:18:30;;;;;;;1.50;0.50;;;13.30;99.90;;;;;;5014731;28;20180;-65
2020/12/22 11:20:56;;;;;;;0.57;0.30;;;13.30;99.90;;;;;;5013469;28;20661;-64
2020/12/22 11:23:21;;;;;;;1.80;0.30;;;13.40;99.90;;;;;;5013285;28;20763;-65
2020/12/22 11:25:47;;;;;;;0.23;0.20;;;13.40;99.90;;;;;;5013219;28;20203;-66
2020/12/22 11:28:13;;;;;;;0.63;0.40;;;13.50;99.90;;;;;;5012706;28;20264;-65
2020/12/22 11:30:38;;;;;;;0.40;0.40;;;13.40;99.90;;;;;;5013222;28;20169;-64
2020/12/22 11:33:04;;;;;;;1.73;0.60;;;13.40;99.90;;;;;;5012891;28;20177;-64
2020/12/22 11:35:30;;;;;;;0.97;0.40;;;13.50;99.90;;;;;;5013161;28;20632;-66
2020/12/22 11:37:56;;;;;;;0.60;0.50;;;13.50;99.90;;;;;;5013177;28;20180;-64
2020/12/22 11:40:22;;;;;;;0.30;0.30;;;13.50;99.90;;;;;;5013092;28;20655;-65
2020/12/22 11:42:48;;;;;;;0.70;0.30;;;13.60;99.90;;;;;;5013020;28;20172;-66
2020/12/22 11:45:13;;;;;;;0.27;0.20;;;13.60;99.90;;;;;;5012523;28;20203;-66
2020/12/22 11:47:40;;;;;;;0.77;0.20;;;13.60;99.90;;;;;;5024049;28;20248;-64
2020/12/22 11:50:05;;;;;;;3.40;0.20;;;13.60;99.90;;;;;;5012675;28;20514;-64
2020/12/22 11:52:32;;;;;;;0.87;0.40;;;13.60;99.90;;;;;;5012400;28;20195;-66
2020/12/22 11:54:58;;;;;;;0.40;0.40;;;13.60;99.90;;;;;;5012796;28;20511;-65
2020/12/22 11:57:23;;;;;;;1.10;0.40;;;13.70;99.90;;;;;;4997730;28;20200;-65
2020/12/22 11:59:49;;;;;;;0.73;0.20;;;13.70;99.90;;;;;;4993000;28;20634;-64
2020/12/22 12:02:14;;;;;;;0.60;0.40;;;13.70;99.90;;;;;;5003687;28;20235;-66
2020/12/22 12:04:40;;;;;;;1.53;0.73;;;13.80;99.90;;;;;;5012784;28;20208;-65
2020/12/22 12:07:06;;;;;;;3.17;0.40;;;13.80;99.90;;;;;;4995242;28;20578;-65
2020/12/22 12:09:31;;;;;;;1.77;0.40;;;13.80;99.90;;;;;;4995438;28;20188;-65
2020/12/22 12:11:57;;;;;;;1.17;0.40;;;13.90;99.90;;;;;;4993652;28;20271;-65
2020/12/22 12:14:22;;;;;;;0.30;0.20;;;14.00;99.90;;;;;;5000872;28;20185;-66
2020/12/22 12:16:49;;;;;;;1.03;0.47;;;14.10;99.90;;;;;;5004547;28;20185;-64
2020/12/22 12:19:16;;;;;;;0.83;0.70;;;14.10;99.90;;;;;;5013000;28;20630;-65
2020/12/22 12:21:42;;;;;;;0.20;0.20;;;14.00;99.90;;;;;;5000985;28;20192;-64
2020/12/22 12:24:08;;;;;;;0.20;0.20;;;14.10;99.90;;;;;;4998817;28;20181;-66
2020/12/22 12:26:34;;;;;;;0.40;0.33;;;14.10;99.90;;;;;;5012531;28;20207;-65
2020/12/22 12:29:00;;;;;;;0.87;0.40;;;14.10;99.90;;;;;;5012700;28;20207;-65
2020/12/22 12:31:27;;;;;;;0.30;0.30;;;14.10;99.90;;;;;;5012592;28;20660;-66
2020/12/22 12:33:53;;;;;;;0.30;0.30;;;14.10;99.90;;;;;;5012554;28;20227;-66
2020/12/22 12:36:19;;;;;;;0.37;0.20;;;14.10;99.90;;;;;;5012510;28;20190;-66
2020/12/22 12:38:44;;;;;;;2.67;0.60;;;14.00;99.90;;;;;;5011582;28;20192;-67
2020/12/22 12:41:13;;;;;;;0.20;0.20;;;14.00;99.90;;;;;;4998661;28;20639;-66
2020/12/22 12:43:40;;;;;;;1.20;0.40;;;14.00;99.90;;;;;;5006054;28;20258;-65
2020/12/22 12:46:06;;;;;;;1.43;0.40;;;13.90;99.90;;;;;;5006739;28;20204;-66
2020/12/22 12:48:33;;;;;;;1.83;0.40;;;13.80;99.90;;;;;;5014898;28;20220;-65
2020/12/22 12:50:59;;;;;;;3.57;0.40;;;13.80;99.90;;;;;;4994323;28;20185;-65